sensor_id;sensor_type;location;lat;lon;timestamp;temperature;humidity
9081;DHT22;13509;50.760;6.080;2023-08-21T10:34:07;29.70;99.90
9081;DHT22;13509;50.760;6.080;2023-08-21T10:36:40;29.50;99.90
9081;DHT22;13509;50.760;6.080;2023-08-21T10:39:13;29.50;99.90
9081;DHT22;13509;50.760;6.080;2023-08-21T10:41:53;29.30;99.90
9081;DHT22;13509;50.760;6.080;2023-08-21T10:44:34;29.20;99.90
9081;DHT22;13509;50.760;6.080;2023-08-21T10:50:10;28.50;99.90
9081;DHT22;13509;50.760;6.080;2023-08-21T10:52:40;28.70;99.90
9081;DHT22;13509;50.760;6.080;2023-08-21T10:57:38;28.20;99.90
9081;DHT22;13509;50.760;6.080;2023-08-21T11:00:08;28.20;99.90
9081;DHT22;13509;50.760;6.080;2023-08-21T11:02:40;28.50;99.90
9081;DHT22;13509;50.760;6.080;2023-08-21T11:05:11;28.30;99.90
9081;DHT22;13509;50.760;6.080;2023-08-21T11:07:40;28.00;99.90
9081;DHT22;13509;50.760;6.080;2023-08-21T11:10:12;28.10;99.90
9081;DHT22;13509;50.760;6.080;2023-08-21T11:12:50;28.20;99.90
9081;DHT22;13509;50.760;6.080;2023-08-21T11:15:19;28.30;99.90
9081;DHT22;13509;50.760;6.080;2023-08-21T11:17:57;28.30;99.90
9081;DHT22;13509;50.760;6.080;2023-08-21T11:20:31;28.70;99.90
9081;DHT22;13509;50.760;6.080;2023-08-21T11:33:07;28.10;99.90
9081;DHT22;13509;50.760;6.080;2023-08-21T11:35:38;28.10;99.90
9081;DHT22;13509;50.760;6.080;2023-08-21T11:38:06;28.10;99.90
9081;DHT22;13509;50.760;6.080;2023-08-21T11:40:41;28.10;99.90
9081;DHT22;13509;50.760;6.080;2023-08-21T11:43:11;28.10;99.90
9081;DHT22;13509;50.760;6.080;2023-08-21T11:45:39;27.90;99.90
9081;DHT22;13509;50.760;6.080;2023-08-21T11:48:23;28.20;99.90
9081;DHT22;13509;50.760;6.080;2023-08-21T11:50:54;28.60;99.90
9081;DHT22;13509;50.760;6.080;2023-08-21T14:59:57;27.70;99.90
9081;DHT22;13509;50.760;6.080;2023-08-21T15:02:25;27.70;99.90
9081;DHT22;13509;50.760;6.080;2023-08-21T15:04:53;27.60;99.90
9081;DHT22;13509;50.760;6.080;2023-08-21T15:07:21;27.60;99.90
9081;DHT22;13509;50.760;6.080;2023-08-21T15:09:49;27.50;99.90
9081;DHT22;13509;50.760;6.080;2023-08-21T15:12:17;27.30;99.90
9081;DHT22;13509;50.760;6.080;2023-08-21T15:14:45;27.20;99.90
9081;DHT22;13509;50.760;6.080;2023-08-21T15:17:14;27.00;99.90
9081;DHT22;13509;50.760;6.080;2023-08-21T15:19:47;26.80;99.90
9081;DHT22;13509;50.760;6.080;2023-08-21T15:22:15;26.60;99.90
9081;DHT22;13509;50.760;6.080;2023-08-21T15:24:43;26.60;99.90
9081;DHT22;13509;50.760;6.080;2023-08-21T15:27:11;26.60;99.90
9081;DHT22;13509;50.760;6.080;2023-08-21T15:29:40;26.60;99.90
9081;DHT22;13509;50.760;6.080;2023-08-21T15:32:08;26.60;99.90
9081;DHT22;13509;50.760;6.080;2023-08-21T15:34:37;26.50;99.90
9081;DHT22;13509;50.760;6.080;2023-08-21T15:37:05;26.50;99.90
9081;DHT22;13509;50.760;6.080;2023-08-21T15:39:33;26.50;99.90
9081;DHT22;13509;50.760;6.080;2023-08-21T15:46:58;26.20;99.90
9081;DHT22;13509;50.760;6.080;2023-08-21T15:49:47;26.20;99.90
9081;DHT22;13509;50.760;6.080;2023-08-21T15:52:15;26.00;99.90
9081;DHT22;13509;50.760;6.080;2023-08-21T15:54:43;26.00;99.90
9081;DHT22;13509;50.760;6.080;2023-08-21T15:57:17;25.90;99.90
9081;DHT22;13509;50.760;6.080;2023-08-21T15:59:45;25.90;99.90
9081;DHT22;13509;50.760;6.080;2023-08-21T16:02:13;25.90;99.90
9081;DHT22;13509;50.760;6.080;2023-08-21T16:04:41;25.80;99.90
9081;DHT22;13509;50.760;6.080;2023-08-21T16:07:10;25.80;99.90
9081;DHT22;13509;50.760;6.080;2023-08-21T16:09:38;25.60;99.90
9081;DHT22;13509;50.760;6.080;2023-08-21T16:12:06;25.50;99.90
9081;DHT22;13509;50.760;6.080;2023-08-21T16:14:34;25.50;99.90
9081;DHT22;13509;50.760;6.080;2023-08-21T16:17:02;25.50;99.90
9081;DHT22;13509;50.760;6.080;2023-08-21T16:19:34;25.30;99.90
9081;DHT22;13509;50.760;6.080;2023-08-21T16:22:03;25.20;99.90
9081;DHT22;13509;50.760;6.080;2023-08-21T16:24:32;25.20;99.90
9081;DHT22;13509;50.760;6.080;2023-08-21T16:44:21;25.00;99.90
9081;DHT22;13509;50.760;6.080;2023-08-21T16:46:49;24.90;99.90
9081;DHT22;13509;50.760;6.080;2023-08-21T16:49:17;24.70;99.90
9081;DHT22;13509;50.760;6.080;2023-08-21T16:51:45;24.70;99.90
9081;DHT22;13509;50.760;6.080;2023-08-21T16:54:13;24.60;99.90
9081;DHT22;13509;50.760;6.080;2023-08-21T16:56:41;24.60;99.90
9081;DHT22;13509;50.760;6.080;2023-08-21T16:59:10;24.50;99.90
9081;DHT22;13509;50.760;6.080;2023-08-21T17:01:38;24.50;99.90
9081;DHT22;13509;50.760;6.080;2023-08-21T17:04:06;24.50;99.90
9081;DHT22;13509;50.760;6.080;2023-08-21T17:06:34;24.40;99.90
9081;DHT22;13509;50.760;6.080;2023-08-21T17:09:02;24.40;99.90
9081;DHT22;13509;50.760;6.080;2023-08-21T17:11:31;24.40;99.90
9081;DHT22;13509;50.760;6.080;2023-08-21T17:13:59;24.40;99.90
9081;DHT22;13509;50.760;6.080;2023-08-21T17:16:28;24.40;99.90
9081;DHT22;13509;50.760;6.080;2023-08-21T17:18:56;24.30;99.90
9081;DHT22;13509;50.760;6.080;2023-08-21T17:21:24;24.20;99.90
9081;DHT22;13509;50.760;6.080;2023-08-21T17:23:56;24.10;99.90
9081;DHT22;13509;50.760;6.080;2023-08-21T17:26:24;24.10;99.90
9081;DHT22;13509;50.760;6.080;2023-08-21T17:58:39;23.40;99.90
9081;DHT22;13509;50.760;6.080;2023-08-21T18:01:07;23.30;99.90
9081;DHT22;13509;50.760;6.080;2023-08-21T18:03:35;23.30;99.90
9081;DHT22;13509;50.760;6.080;2023-08-21T18:06:05;23.20;99.90
9081;DHT22;13509;50.760;6.080;2023-08-21T18:08:35;23.10;99.90
9081;DHT22;13509;50.760;6.080;2023-08-21T18:11:03;23.10;99.90
9081;DHT22;13509;50.760;6.080;2023-08-21T18:13:34;23.00;99.90
9081;DHT22;13509;50.760;6.080;2023-08-21T18:16:02;23.00;99.90
9081;DHT22;13509;50.760;6.080;2023-08-21T18:18:30;22.90;99.90
9081;DHT22;13509;50.760;6.080;2023-08-21T18:20:58;22.90;99.90
9081;DHT22;13509;50.760;6.080;2023-08-21T18:23:30;22.80;99.90
9081;DHT22;13509;50.760;6.080;2023-08-21T18:25:59;22.80;99.90
9081;DHT22;13509;50.760;6.080;2023-08-21T18:28:29;22.70;99.90
9081;DHT22;13509;50.760;6.080;2023-08-21T18:30:58;22.70;99.90
9081;DHT22;13509;50.760;6.080;2023-08-21T18:33:26;22.60;99.90
9081;DHT22;13509;50.760;6.080;2023-08-21T18:35:54;22.50;99.90
9081;DHT22;13509;50.760;6.080;2023-08-21T18:38:22;22.40;99.90
9081;DHT22;13509;50.760;6.080;2023-08-21T18:40:51;22.40;99.90
9081;DHT22;13509;50.760;6.080;2023-08-21T18:43:21;22.30;99.90
9081;DHT22;13509;50.760;6.080;2023-08-21T18:45:49;22.20;99.90
9081;DHT22;13509;50.760;6.080;2023-08-21T18:48:18;22.10;99.90
9081;DHT22;13509;50.760;6.080;2023-08-21T18:50:47;22.00;99.90
9081;DHT22;13509;50.760;6.080;2023-08-21T18:53:15;22.00;99.90
9081;DHT22;13509;50.760;6.080;2023-08-21T18:58:13;21.70;99.90
9081;DHT22;13509;50.760;6.080;2023-08-21T19:00:42;21.70;99.90
9081;DHT22;13509;50.760;6.080;2023-08-21T19:03:10;21.70;99.90
9081;DHT22;13509;50.760;6.080;2023-08-21T19:05:39;21.50;99.90
9081;DHT22;13509;50.760;6.080;2023-08-21T19:08:07;21.50;99.90
9081;DHT22;13509;50.760;6.080;2023-08-21T19:10:35;21.30;99.90
9081;DHT22;13509;50.760;6.080;2023-08-21T19:25:29;20.80;99.90
9081;DHT22;13509;50.760;6.080;2023-08-21T19:27:58;20.80;99.90
9081;DHT22;13509;50.760;6.080;2023-08-21T19:30:26;20.70;99.90
9081;DHT22;13509;50.760;6.080;2023-08-21T19:32:54;20.60;99.90
9081;DHT22;13509;50.760;6.080;2023-08-21T19:35:23;20.50;99.90
9081;DHT22;13509;50.760;6.080;2023-08-21T19:37:51;20.50;99.90
9081;DHT22;13509;50.760;6.080;2023-08-21T19:40:19;20.50;99.90
9081;DHT22;13509;50.760;6.080;2023-08-21T19:42:47;20.40;99.90
9081;DHT22;13509;50.760;6.080;2023-08-21T19:52:44;20.20;99.90
9081;DHT22;13509;50.760;6.080;2023-08-21T19:55:12;20.20;99.90
9081;DHT22;13509;50.760;6.080;2023-08-21T19:57:40;20.10;99.90
9081;DHT22;13509;50.760;6.080;2023-08-21T20:02:38;19.90;99.90
9081;DHT22;13509;50.760;6.080;2023-08-21T20:05:06;19.70;99.90
9081;DHT22;13509;50.760;6.080;2023-08-21T20:59:40;19.00;99.90
9081;DHT22;13509;50.760;6.080;2023-08-21T21:02:09;19.00;99.90
9081;DHT22;13509;50.760;6.080;2023-08-21T21:04:37;19.00;99.90
9081;DHT22;13509;50.760;6.080;2023-08-21T21:07:05;18.90;99.90
9081;DHT22;13509;50.760;6.080;2023-08-21T21:09:33;18.80;99.90
9081;DHT22;13509;50.760;6.080;2023-08-21T21:12:02;18.80;99.90
9081;DHT22;13509;50.760;6.080;2023-08-21T21:14:31;18.80;99.90
9081;DHT22;13509;50.760;6.080;2023-08-21T21:16:59;18.70;99.90
9081;DHT22;13509;50.760;6.080;2023-08-21T21:19:28;18.70;99.90
9081;DHT22;13509;50.760;6.080;2023-08-21T21:21:56;18.70;99.90
